createdAt,value
2019-02-12T00:00:57.927Z,46.93
2019-02-12T00:02:02.446Z,46.89
2019-02-12T00:03:07.397Z,46.75
2019-02-12T00:04:12.330Z,46.24
2019-02-12T00:05:17.277Z,46.35
2019-02-12T00:06:22.477Z,46.48
2019-02-12T00:07:26.908Z,46.43
2019-02-12T00:08:32.096Z,46.63
2019-02-12T00:09:36.729Z,46.42
2019-02-12T00:10:41.747Z,46.45
2019-02-12T00:11:46.973Z,46.87
2019-02-12T00:12:52.189Z,46.48
2019-02-12T00:13:57.685Z,46.76
2019-02-12T00:15:03.157Z,47.23
2019-02-12T00:16:08.670Z,47.07
2019-02-12T00:17:13.796Z,47.04
2019-02-12T00:18:19.027Z,47.06
2019-02-12T00:19:23.890Z,46.98
2019-02-12T00:20:29.383Z,47.07
2019-02-12T00:21:34.361Z,47.00
2019-02-12T00:22:39.875Z,46.92
2019-02-12T00:23:45.397Z,46.74
2019-02-12T00:24:50.871Z,46.80
2019-02-12T00:25:55.558Z,47.09
2019-02-12T00:27:00.411Z,46.69
2019-02-12T00:28:05.063Z,46.51
2019-02-12T00:29:10.006Z,46.54
2019-02-12T00:30:14.705Z,46.72
2019-02-12T00:31:19.637Z,46.79
2019-02-12T00:32:24.429Z,46.71
2019-02-12T00:33:29.575Z,46.78
2019-02-12T00:34:34.484Z,47.10
2019-02-12T00:35:39.712Z,47.03
2019-02-12T00:36:44.359Z,46.93
2019-02-12T00:37:49.790Z,47.21
2019-02-12T00:38:54.967Z,47.17
2019-02-12T00:40:00.277Z,46.51
2019-02-12T00:41:05.217Z,46.53
2019-02-12T00:42:10.174Z,46.37
2019-02-12T00:43:15.215Z,46.49
2019-02-12T00:44:20.283Z,46.63
2019-02-12T00:45:24.924Z,46.81
2019-02-12T00:46:30.147Z,47.08
2019-02-12T00:47:35.752Z,46.89
2019-02-12T00:48:40.855Z,46.98
2019-02-12T00:49:46.208Z,46.92
2019-02-12T00:50:51.658Z,46.59
2019-02-12T00:51:56.881Z,47.17
2019-02-12T00:53:02.309Z,47.29
2019-02-12T00:54:06.998Z,47.80
2019-02-12T00:55:12.047Z,47.24
2019-02-12T00:56:17.263Z,47.41
2019-02-12T00:57:22.483Z,46.99
2019-02-12T00:58:27.363Z,47.17
2019-02-12T00:59:32.337Z,47.31
2019-02-12T01:00:37.303Z,47.53
2019-02-12T01:01:42.059Z,47.58
2019-02-12T01:02:46.980Z,47.41
2019-02-12T01:03:52.893Z,47.64
2019-02-12T01:04:58.430Z,47.60
2019-02-12T01:06:03.254Z,47.54
2019-02-12T01:07:09.014Z,47.28
2019-02-12T01:08:13.746Z,47.46
2019-02-12T01:09:18.351Z,47.40
2019-02-12T01:10:23.301Z,47.36
2019-02-12T01:11:28.274Z,46.88
2019-02-12T01:12:32.749Z,47.14
2019-02-12T01:13:37.985Z,47.29
2019-02-12T01:14:42.989Z,47.63
2019-02-12T01:15:48.090Z,47.79
2019-02-12T01:16:53.277Z,47.90
2019-02-12T01:17:59.865Z,48.18
2019-02-12T01:19:04.746Z,48.68
2019-02-12T01:20:11.599Z,48.26
2019-02-12T01:21:16.819Z,48.18
2019-02-12T01:22:21.511Z,47.95
2019-02-12T01:23:26.776Z,47.77
2019-02-12T01:24:32.350Z,47.73
2019-02-12T01:25:37.057Z,48.00
2019-02-12T01:26:42.362Z,48.42
2019-02-12T01:27:47.324Z,48.20
2019-02-12T01:28:52.243Z,48.30
2019-02-12T01:29:57.413Z,48.28
2019-02-12T01:31:02.415Z,48.43
2019-02-12T01:32:07.760Z,48.39
2019-02-12T01:33:12.716Z,48.37
2019-02-12T01:34:17.358Z,48.35
2019-02-12T01:35:22.894Z,48.90
2019-02-12T01:36:27.836Z,48.65
2019-02-12T01:37:32.418Z,48.40
2019-02-12T01:38:37.172Z,48.10
2019-02-12T01:39:42.409Z,48.17
2019-02-12T01:40:47.351Z,47.72
2019-02-12T01:41:52.307Z,48.03
2019-02-12T01:42:57.524Z,47.72
2019-02-12T01:44:02.133Z,47.66
2019-02-12T01:45:07.554Z,47.88
2019-02-12T01:46:12.430Z,47.88
2019-02-12T01:47:17.381Z,47.85
2019-02-12T01:48:22.413Z,47.95
2019-02-12T01:49:27.554Z,47.90
2019-02-12T01:50:32.710Z,48.08
2019-02-12T01:51:37.823Z,47.90
2019-02-12T01:52:42.560Z,48.31
2019-02-12T01:53:47.638Z,49.10
2019-02-12T01:54:52.945Z,48.57
2019-02-12T01:55:57.892Z,48.53
2019-02-12T01:57:02.497Z,48.17
2019-02-12T01:58:07.489Z,48.40
2019-02-12T01:59:12.327Z,48.18
2019-02-12T02:00:17.511Z,48.12
2019-02-12T02:01:22.880Z,47.76
2019-02-12T02:02:27.355Z,47.98
2019-02-12T02:03:32.579Z,47.94
2019-02-12T02:04:37.992Z,47.58
2019-02-12T02:05:43.093Z,48.12
2019-02-12T02:06:48.586Z,48.43
2019-02-12T02:07:54.130Z,48.47
2019-02-12T02:08:59.624Z,48.51
2019-02-12T02:10:04.983Z,48.62
2019-02-12T02:11:10.215Z,48.58
2019-02-12T02:12:15.447Z,48.55
2019-02-12T02:13:20.664Z,48.91
2019-02-12T02:14:25.625Z,48.52
2019-02-12T02:15:30.598Z,48.41
2019-02-12T02:16:35.765Z,48.55
2019-02-12T02:17:40.973Z,48.09
2019-02-12T02:18:46.256Z,48.27
2019-02-12T02:19:50.971Z,48.33
2019-02-12T02:20:55.931Z,48.53
2019-02-12T02:22:01.075Z,48.70
2019-02-12T02:23:06.321Z,49.20
2019-02-12T02:24:11.297Z,48.74
2019-02-12T02:25:16.122Z,49.17
2019-02-12T02:26:21.358Z,48.87
2019-02-12T02:27:26.605Z,49.05
2019-02-12T02:28:31.842Z,49.35
2019-02-12T02:29:37.353Z,49.15
2019-02-12T02:30:42.516Z,48.99
2019-02-12T02:31:48.027Z,48.94
2019-02-12T02:32:53.496Z,48.38
2019-02-12T02:33:58.744Z,48.84
2019-02-12T02:35:03.715Z,49.09
2019-02-12T02:36:08.599Z,48.69
2019-02-12T02:37:13.862Z,49.15
2019-02-12T02:38:18.822Z,48.98
2019-02-12T02:39:23.987Z,48.63
2019-02-12T02:40:29.500Z,48.85
2019-02-12T02:41:34.157Z,49.15
2019-02-12T02:42:39.391Z,49.02
2019-02-12T02:43:44.807Z,48.87
2019-02-12T02:44:50.354Z,48.80
2019-02-12T02:45:55.564Z,49.01
2019-02-12T02:47:00.722Z,48.81
2019-02-12T02:48:05.471Z,48.80
2019-02-12T02:49:10.073Z,49.06
2019-02-12T02:50:15.301Z,48.69
2019-02-12T02:51:20.360Z,49.54
2019-02-12T02:52:25.672Z,49.25
2019-02-12T02:53:30.943Z,49.35
2019-02-12T02:54:36.429Z,48.90
2019-02-12T02:55:41.181Z,48.56
2019-02-12T02:56:46.096Z,48.97
2019-02-12T02:57:51.026Z,48.54
2019-02-12T02:58:56.539Z,48.78
2019-02-12T03:00:01.539Z,48.59
2019-02-12T03:01:06.474Z,48.64
2019-02-12T03:02:11.113Z,48.57
2019-02-12T03:03:16.388Z,48.74
2019-02-12T03:04:21.874Z,48.78
2019-02-12T03:05:27.450Z,48.44
2019-02-12T03:06:32.812Z,48.85
2019-02-12T03:07:37.812Z,49.51
2019-02-12T03:08:43.145Z,48.73
2019-02-12T03:09:48.317Z,48.67
2019-02-12T03:10:52.989Z,48.73
2019-02-12T03:11:57.802Z,48.69
2019-02-12T03:13:03.249Z,49.21
2019-02-12T03:14:08.380Z,48.93
2019-02-12T03:15:13.078Z,49.82
2019-02-12T03:16:17.996Z,49.59
2019-02-12T03:17:23.205Z,49.53
2019-02-12T03:18:28.169Z,49.08
2019-02-12T03:19:33.371Z,49.09
2019-02-12T03:20:38.591Z,49.00
2019-02-12T03:21:43.549Z,49.09
2019-02-12T03:22:48.926Z,49.15
2019-02-12T03:23:53.364Z,48.78
2019-02-12T03:24:58.270Z,49.02
2019-02-12T03:26:03.390Z,49.20
2019-02-12T03:27:08.923Z,49.28
2019-02-12T03:28:13.863Z,49.87
2019-02-12T03:29:19.149Z,49.42
2019-02-12T03:30:24.309Z,49.97
2019-02-12T03:31:29.286Z,50.14
2019-02-12T03:32:34.021Z,50.35
2019-02-12T03:33:39.229Z,49.84
2019-02-12T03:34:44.289Z,49.79
2019-02-12T03:35:49.652Z,49.63
2019-02-12T03:36:55.170Z,49.63
2019-02-12T03:38:00.509Z,49.18
2019-02-12T03:39:05.607Z,49.59
2019-02-12T03:40:10.986Z,49.46
2019-02-12T03:41:16.221Z,49.49
2019-02-12T03:42:21.536Z,49.63
2019-02-12T03:43:26.502Z,49.79
2019-02-12T03:44:31.552Z,50.65
2019-02-12T03:45:36.569Z,50.38
2019-02-12T03:46:41.548Z,50.00
2019-02-12T03:47:46.830Z,49.79
2019-02-12T03:48:52.027Z,49.52
2019-02-12T03:49:57.282Z,49.50
2019-02-12T03:51:02.211Z,49.67
2019-02-12T03:52:12.810Z,49.66
2019-02-12T03:53:14.150Z,50.00
2019-02-12T03:54:19.326Z,50.59
2019-02-12T03:55:24.599Z,50.30
2019-02-12T03:56:30.130Z,50.43
2019-02-12T03:57:35.386Z,50.03
2019-02-12T03:58:40.338Z,50.12
2019-02-12T03:59:45.373Z,50.16
2019-02-12T04:00:50.729Z,49.83
2019-02-12T04:01:55.484Z,49.90
2019-02-12T04:03:07.741Z,50.13
2019-02-12T04:04:13.088Z,49.51
2019-02-12T04:05:17.741Z,50.13
2019-02-12T04:06:23.054Z,49.90
2019-02-12T04:07:28.302Z,50.14
2019-02-12T04:08:33.451Z,50.20
2019-02-12T04:09:38.615Z,50.32
2019-02-12T04:10:43.505Z,50.27
2019-02-12T04:11:48.629Z,50.17
2019-02-12T04:12:53.486Z,49.95
2019-02-12T04:13:59.106Z,49.72
2019-02-12T04:15:04.055Z,49.82
2019-02-12T04:16:09.132Z,49.79
2019-02-12T04:17:14.384Z,49.96
2019-02-12T04:18:19.607Z,50.37
2019-02-12T04:19:24.737Z,49.77
2019-02-12T04:20:29.691Z,50.18
2019-02-12T04:21:34.674Z,50.18
2019-02-12T04:22:39.824Z,50.22
2019-02-12T04:23:45.087Z,50.35
2019-02-12T04:24:50.317Z,50.25
2019-02-12T04:25:55.780Z,50.20
2019-02-12T04:27:00.919Z,49.95
2019-02-12T04:28:06.081Z,49.92
2019-02-12T04:29:11.601Z,49.98
2019-02-12T04:30:16.548Z,49.88
2019-02-12T04:31:22.077Z,50.18
2019-02-12T04:32:27.582Z,50.55
2019-02-12T04:33:32.756Z,51.18
2019-02-12T04:34:37.957Z,51.01
2019-02-12T04:35:43.317Z,50.71
2019-02-12T04:36:48.551Z,51.24
2019-02-12T04:37:53.941Z,50.52
2019-02-12T04:38:59.400Z,50.56
2019-02-12T04:40:04.124Z,50.71
2019-02-12T04:41:09.332Z,50.76
2019-02-12T04:42:14.579Z,50.41
2019-02-12T04:43:19.188Z,50.49
2019-02-12T04:44:24.723Z,50.40
2019-02-12T04:45:29.413Z,49.84
2019-02-12T04:46:34.625Z,49.90
2019-02-12T04:47:39.685Z,50.06
2019-02-12T04:48:44.181Z,50.42
2019-02-12T04:49:49.167Z,50.51
2019-02-12T04:50:54.189Z,50.40
2019-02-12T04:51:59.182Z,50.77
2019-02-12T04:53:04.134Z,50.63
2019-02-12T04:54:09.045Z,50.64
2019-02-12T04:55:13.669Z,50.27
2019-02-12T04:56:18.847Z,50.15
2019-02-12T04:57:23.529Z,50.22
2019-02-12T04:58:28.509Z,50.57
2019-02-12T04:59:33.182Z,50.98
2019-02-12T05:00:38.934Z,50.92
2019-02-12T05:01:44.089Z,51.17
2019-02-12T05:02:49.335Z,51.42
2019-02-12T05:03:54.595Z,51.01
2019-02-12T05:04:59.501Z,50.75
2019-02-12T05:06:04.186Z,50.79
2019-02-12T05:07:09.274Z,50.58
2019-02-12T05:08:14.238Z,50.61
2019-02-12T05:09:20.689Z,50.21
2019-02-12T05:10:26.125Z,50.01
2019-02-12T05:11:31.203Z,50.42
2019-02-12T05:12:35.836Z,50.79
2019-02-12T05:13:40.988Z,51.11
2019-02-12T05:14:46.043Z,50.97
2019-02-12T05:15:51.280Z,50.86
2019-02-12T05:16:56.498Z,51.07
2019-02-12T05:18:01.374Z,51.19
2019-02-12T05:19:06.849Z,50.76
2019-02-12T05:20:13.002Z,50.90
2019-02-12T05:21:17.678Z,50.73
2019-02-12T05:22:23.688Z,51.06
2019-02-12T05:23:28.943Z,51.08
2019-02-12T05:24:34.099Z,50.85
2019-02-12T05:25:39.669Z,50.46
2019-02-12T05:26:44.928Z,50.54
2019-02-12T05:27:50.186Z,50.53
2019-02-12T05:28:55.707Z,51.24
2019-02-12T05:30:00.855Z,51.52
2019-02-12T05:31:05.538Z,51.30
2019-02-12T05:32:09.907Z,51.14
2019-02-12T05:33:15.138Z,51.11
2019-02-12T05:34:19.646Z,51.00
2019-02-12T05:35:24.901Z,50.83
2019-02-12T05:36:30.418Z,51.04
2019-02-12T05:37:35.803Z,51.28
2019-02-12T05:38:41.106Z,51.28
2019-02-12T05:39:46.194Z,51.14
2019-02-12T05:40:51.320Z,51.34
2019-02-12T05:41:56.571Z,51.10
2019-02-12T05:43:01.824Z,50.91
2019-02-12T05:44:06.490Z,50.80
2019-02-12T05:45:12.028Z,51.11
2019-02-12T05:46:17.006Z,51.20
2019-02-12T05:47:21.972Z,51.41
2019-02-12T05:48:26.830Z,51.20
2019-02-12T05:49:32.073Z,51.31
2019-02-12T05:50:37.345Z,51.30
2019-02-12T05:51:42.384Z,51.04
2019-02-12T05:52:54.285Z,51.17
2019-02-12T05:53:54.872Z,51.25
2019-02-12T05:55:00.021Z,51.10
2019-02-12T05:56:05.208Z,51.11
2019-02-12T05:57:09.639Z,51.00
2019-02-12T05:58:14.728Z,50.73
2019-02-12T05:59:19.673Z,50.82
2019-02-12T06:00:27.051Z,51.02
2019-02-12T06:01:31.786Z,51.04
2019-02-12T06:02:37.337Z,50.83
2019-02-12T06:03:42.851Z,51.15
2019-02-12T06:04:47.999Z,51.15
2019-02-12T06:05:53.082Z,51.06
2019-02-12T06:06:58.014Z,51.59
2019-02-12T06:08:02.874Z,51.61
2019-02-12T06:09:07.917Z,51.40
2019-02-12T06:10:13.153Z,51.88
2019-02-12T06:11:18.356Z,52.11
2019-02-12T06:12:23.594Z,52.00
2019-02-12T06:13:28.525Z,51.77
2019-02-12T06:14:33.247Z,51.99
2019-02-12T06:15:38.442Z,53.53
2019-02-12T06:16:45.743Z,51.90
2019-02-12T06:17:51.181Z,51.58
2019-02-12T06:18:56.128Z,51.26
2019-02-12T06:20:01.405Z,51.65
2019-02-12T06:21:06.334Z,51.77
2019-02-12T06:22:11.924Z,51.29
2019-02-12T06:23:16.878Z,51.42
2019-02-12T06:24:22.202Z,51.23
2019-02-12T06:25:27.633Z,50.87
2019-02-12T06:26:33.086Z,51.32
2019-02-12T06:27:38.016Z,51.07
2019-02-12T06:28:42.952Z,50.98
2019-02-12T06:29:48.117Z,50.77
2019-02-12T06:30:53.354Z,50.96
2019-02-12T06:31:58.440Z,51.09
2019-02-12T06:33:07.702Z,51.17
2019-02-12T06:34:10.444Z,50.92
2019-02-12T06:35:16.717Z,51.46
2019-02-12T06:36:21.947Z,51.68
2019-02-12T06:37:27.210Z,52.16
2019-02-12T06:38:32.539Z,51.23
2019-02-12T06:39:37.786Z,51.52
2019-02-12T06:40:43.159Z,51.27
2019-02-12T06:41:47.587Z,51.22
2019-02-12T06:42:52.181Z,51.36
2019-02-12T06:43:57.131Z,51.55
2019-02-12T06:45:02.127Z,51.70
2019-02-12T06:46:07.104Z,51.16
2019-02-12T06:47:12.077Z,51.78
2019-02-12T06:48:16.692Z,51.44
2019-02-12T06:49:21.375Z,51.49
2019-02-12T06:50:26.336Z,51.07
2019-02-12T06:51:31.591Z,51.39
2019-02-12T06:52:36.576Z,51.31
2019-02-12T06:53:41.642Z,50.90
2019-02-12T06:54:46.724Z,51.13
2019-02-12T06:55:51.782Z,51.66
2019-02-12T06:56:57.304Z,51.53
2019-02-12T06:58:02.275Z,51.14
2019-02-12T06:59:07.832Z,51.79
2019-02-12T07:00:12.786Z,51.61
2019-02-12T07:01:18.370Z,51.70
2019-02-12T07:02:58.924Z,52.11
2019-02-12T07:04:13.615Z,51.65
2019-02-12T07:05:18.790Z,52.08
2019-02-12T07:06:38.482Z,51.65
2019-02-12T07:08:09.855Z,51.15
2019-02-12T07:09:25.376Z,52.22
2019-02-12T07:10:35.516Z,52.13
2019-02-12T07:12:29.332Z,52.05
2019-02-12T07:13:39.446Z,52.24
2019-02-12T07:15:12.042Z,52.69
2019-02-12T07:16:53.395Z,51.82
2019-02-12T07:18:33.966Z,52.13
2019-02-12T07:19:52.884Z,51.48
2019-02-12T07:21:53.784Z,51.67
2019-02-12T07:23:21.712Z,51.33
2019-02-12T07:24:58.264Z,52.30
2019-02-12T07:26:41.570Z,52.94
2019-02-12T07:28:11.555Z,52.18
2019-02-12T07:29:49.342Z,52.82
2019-02-12T07:31:41.028Z,52.02
2019-02-12T07:33:03.359Z,51.46
2019-02-12T07:34:48.175Z,52.13
2019-02-12T07:36:53.127Z,52.06
2019-02-12T07:38:37.059Z,52.01
2019-02-12T07:40:23.984Z,51.73
2019-02-12T07:41:40.202Z,51.45
2019-02-12T07:42:57.653Z,51.52
2019-02-12T07:44:16.510Z,51.70
2019-02-12T07:45:56.916Z,50.42
2019-02-12T07:47:36.619Z,49.74
2019-02-12T07:48:56.592Z,49.02
2019-02-12T07:50:54.274Z,50.53
2019-02-12T07:52:20.058Z,50.15
2019-02-12T07:54:08.990Z,51.50
2019-02-12T07:55:51.507Z,51.27
2019-02-12T07:57:17.605Z,49.74
2019-02-12T07:58:56.198Z,48.98
2019-02-12T08:00:33.693Z,49.61
2019-02-12T08:02:13.039Z,49.08
2019-02-12T08:03:46.483Z,48.73
2019-02-12T08:05:27.515Z,48.51
2019-02-12T08:07:05.819Z,48.27
2019-02-12T08:08:23.215Z,48.36
2019-02-12T08:10:02.208Z,48.04
2019-02-12T08:11:28.438Z,48.18
2019-02-12T08:12:48.386Z,48.51
2019-02-12T08:14:02.954Z,48.65
2019-02-12T08:15:23.261Z,48.52
2019-02-12T08:17:08.949Z,48.66
2019-02-12T08:18:45.358Z,49.04
2019-02-12T08:20:33.245Z,49.40
2019-02-12T08:22:10.711Z,49.28
2019-02-12T08:23:42.797Z,49.58
2019-02-12T08:25:08.638Z,48.84
2019-02-12T08:26:57.860Z,49.15
2019-02-12T08:28:27.579Z,48.69
2019-02-12T08:30:31.015Z,48.11
2019-02-12T08:31:57.401Z,47.98
2019-02-12T08:33:58.002Z,48.11
2019-02-12T08:35:38.476Z,48.32
2019-02-12T08:37:05.512Z,48.63
2019-02-12T08:38:33.777Z,48.25
2019-02-12T08:39:56.758Z,50.50
2019-02-12T08:41:48.158Z,48.54
2019-02-12T08:43:14.770Z,48.70
2019-02-12T08:44:59.533Z,48.05
2019-02-12T08:47:02.996Z,47.95
2019-02-12T08:48:50.935Z,47.96
2019-02-12T08:50:15.666Z,47.45
2019-02-12T08:52:00.183Z,47.95
2019-02-12T08:53:36.454Z,48.38
2019-02-12T08:55:24.664Z,48.13
2019-02-12T08:56:42.524Z,47.97
2019-02-12T08:58:11.584Z,48.15
2019-02-12T08:59:39.649Z,48.30
2019-02-12T09:01:28.309Z,48.80
2019-02-12T09:03:14.083Z,48.92
2019-02-12T09:04:53.212Z,48.98
2019-02-12T09:06:21.082Z,48.46
2019-02-12T09:07:39.588Z,48.06
2019-02-12T09:09:30.240Z,48.51
2019-02-12T09:10:56.668Z,47.36
2019-02-12T09:12:45.371Z,46.91
2019-02-12T09:14:01.294Z,46.62
2019-02-12T09:15:21.790Z,46.46
2019-02-12T09:17:12.763Z,46.62
2019-02-12T09:19:01.391Z,46.30
2019-02-12T09:20:46.595Z,46.92
2019-02-12T09:22:18.706Z,47.24
2019-02-12T09:24:15.872Z,47.29
2019-02-12T09:25:41.348Z,47.05
2019-02-12T09:27:33.462Z,47.60
2019-02-12T09:29:07.686Z,47.23
2019-02-12T09:30:55.033Z,47.51
2019-02-12T09:32:55.961Z,47.37
2019-02-12T09:34:46.881Z,47.07
2019-02-12T09:36:20.835Z,46.89
2019-02-12T09:37:45.460Z,46.40
2019-02-12T09:39:26.685Z,45.82
2019-02-12T09:41:14.403Z,45.90
2019-02-12T09:42:54.234Z,46.24
2019-02-12T09:44:39.491Z,46.21
2019-02-12T09:46:07.288Z,46.59
2019-02-12T09:47:48.134Z,45.96
2019-02-12T09:49:13.602Z,46.22
2019-02-12T09:51:11.305Z,45.79
2019-02-12T09:52:43.069Z,46.20
2019-02-12T09:54:08.473Z,46.78
2019-02-12T09:55:27.347Z,45.72
2019-02-12T09:57:22.573Z,45.03
2019-02-12T09:59:04.667Z,45.35
2019-02-12T10:00:38.718Z,44.81
2019-02-12T10:02:28.154Z,45.39
2019-02-12T10:04:10.020Z,45.25
2019-02-12T10:05:33.399Z,45.44
2019-02-12T10:07:01.698Z,44.80
2019-02-12T10:09:02.608Z,45.11
2019-02-12T10:10:36.987Z,45.99
2019-02-12T10:12:09.117Z,44.45
2019-02-12T10:13:38.965Z,45.39
2019-02-12T10:15:10.774Z,44.78
2019-02-12T10:16:26.045Z,45.41
2019-02-12T10:18:03.916Z,45.02
2019-02-12T10:19:23.826Z,45.12
2019-02-12T10:20:56.102Z,45.44
2019-02-12T10:22:19.847Z,45.03
2019-02-12T10:23:50.699Z,45.17
2019-02-12T10:25:20.695Z,45.05
2019-02-12T10:26:25.505Z,45.36
2019-02-12T10:28:02.420Z,44.49
2019-02-12T10:29:27.488Z,44.26
2019-02-12T10:30:55.664Z,43.68
2019-02-12T10:32:08.263Z,43.38
2019-02-12T10:33:05.815Z,43.27
2019-02-12T10:34:10.717Z,43.24
2019-02-12T10:35:16.030Z,43.23
2019-02-12T10:36:21.301Z,43.18
2019-02-12T10:37:26.248Z,43.54
2019-02-12T10:38:31.795Z,43.49
2019-02-12T10:39:36.482Z,43.63
2019-02-12T10:40:41.795Z,43.15
2019-02-12T10:41:47.065Z,42.92
2019-02-12T10:42:52.628Z,43.67
2019-02-12T10:43:57.861Z,43.27
2019-02-12T10:45:03.107Z,43.10
2019-02-12T10:46:08.371Z,42.93
2019-02-12T10:47:13.332Z,43.49
2019-02-12T10:48:18.304Z,43.37
2019-02-12T10:49:23.795Z,42.71
2019-02-12T10:50:29.027Z,43.10
2019-02-12T10:51:33.960Z,43.02
2019-02-12T10:52:39.569Z,42.97
2019-02-12T10:53:44.575Z,42.30
2019-02-12T10:54:48.996Z,42.08
2019-02-12T10:55:54.265Z,42.48
2019-02-12T10:56:59.796Z,42.01
2019-02-12T10:58:04.229Z,41.94
2019-02-12T10:59:08.661Z,42.21
2019-02-12T11:00:14.474Z,42.75
2019-02-12T11:01:19.143Z,43.04
2019-02-12T11:02:24.375Z,42.84
2019-02-12T11:03:29.678Z,43.14
2019-02-12T11:04:34.694Z,43.08
2019-02-12T11:05:39.717Z,43.60
2019-02-12T11:06:45.323Z,44.01
2019-02-12T11:07:50.552Z,43.63
2019-02-12T11:08:55.868Z,44.20
2019-02-12T11:10:01.401Z,43.76
2019-02-12T11:11:06.357Z,43.78
2019-02-12T11:12:11.222Z,43.97
2019-02-12T11:13:16.883Z,43.17
2019-02-12T11:14:21.919Z,43.09
2019-02-12T11:15:26.737Z,43.12
2019-02-12T11:16:32.315Z,42.89
2019-02-12T11:17:37.234Z,42.97
2019-02-12T11:18:42.183Z,42.65
2019-02-12T11:19:47.139Z,43.12
2019-02-12T11:20:52.699Z,43.09
2019-02-12T11:21:57.923Z,43.15
2019-02-12T11:23:03.139Z,42.84
2019-02-12T11:24:08.581Z,42.57
2019-02-12T11:25:14.081Z,42.74
2019-02-12T11:26:19.321Z,42.58
2019-02-12T11:27:24.794Z,42.39
2019-02-12T11:28:29.452Z,41.61
2019-02-12T11:29:34.398Z,41.99
2019-02-12T11:30:39.536Z,41.95
2019-02-12T11:31:47.322Z,42.53
2019-02-12T11:32:52.892Z,42.51
2019-02-12T11:33:57.958Z,42.87
2019-02-12T11:35:02.834Z,42.98
2019-02-12T11:36:07.974Z,42.77
2019-02-12T11:37:12.964Z,42.75
2019-02-12T11:38:18.216Z,42.79
2019-02-12T11:39:22.895Z,42.91
2019-02-12T11:40:28.148Z,42.38
2019-02-12T11:41:33.349Z,42.21
2019-02-12T11:42:38.861Z,42.11
2019-02-12T11:43:44.412Z,42.21
2019-02-12T11:44:49.669Z,42.09
2019-02-12T11:45:54.722Z,42.28
2019-02-12T11:46:59.648Z,42.78
2019-02-12T11:48:04.611Z,42.86
2019-02-12T11:49:09.846Z,42.24
2019-02-12T11:50:15.086Z,42.24
2019-02-12T11:51:20.340Z,42.31
2019-02-12T11:52:25.458Z,42.10
2019-02-12T11:53:30.296Z,42.46
2019-02-12T11:54:43.430Z,41.98
2019-02-12T11:55:42.778Z,42.42
2019-02-12T11:56:48.005Z,42.73
2019-02-12T11:57:53.142Z,42.00
2019-02-12T11:58:58.386Z,42.13
2019-02-12T12:00:03.112Z,42.04
2019-02-12T12:01:10.436Z,41.66
2019-02-12T12:02:15.569Z,41.91
2019-02-12T12:03:20.489Z,42.43
2019-02-12T12:04:25.720Z,43.64
2019-02-12T12:05:30.325Z,43.97
2019-02-12T12:06:35.571Z,43.69
2019-02-12T12:07:40.694Z,43.64
2019-02-12T12:08:45.611Z,43.11
2019-02-12T12:09:50.852Z,42.62
2019-02-12T12:10:55.827Z,42.96
2019-02-12T12:12:00.433Z,43.74
2019-02-12T12:13:05.134Z,43.27
2019-02-12T12:14:10.189Z,43.37
2019-02-12T12:15:14.966Z,43.25
2019-02-12T12:16:19.920Z,42.92
2019-02-12T12:17:24.839Z,42.49
2019-02-12T12:18:30.098Z,43.09
2019-02-12T12:19:34.957Z,43.21
2019-02-12T12:20:40.439Z,42.59
2019-02-12T12:21:45.809Z,42.60
2019-02-12T12:22:51.346Z,42.50
2019-02-12T12:23:56.597Z,42.83
2019-02-12T12:25:01.285Z,42.69
2019-02-12T12:26:06.553Z,43.38
2019-02-12T12:27:11.792Z,43.13
2019-02-12T12:28:16.466Z,42.93
2019-02-12T12:29:21.420Z,43.58
2019-02-12T12:30:26.103Z,43.35
2019-02-12T12:31:31.385Z,43.38
2019-02-12T12:32:36.597Z,43.07
2019-02-12T12:33:41.590Z,43.31
2019-02-12T12:34:46.609Z,43.17
2019-02-12T12:35:51.041Z,42.87
2019-02-12T12:36:55.914Z,42.89
2019-02-12T12:38:01.178Z,43.12
2019-02-12T12:39:06.907Z,43.32
2019-02-12T12:40:11.862Z,43.58
2019-02-12T12:41:17.014Z,43.12
2019-02-12T12:42:23.154Z,43.12
2019-02-12T12:43:29.779Z,43.27
2019-02-12T12:44:34.646Z,43.07
2019-02-12T12:45:39.919Z,43.31
2019-02-12T12:46:45.518Z,43.39
2019-02-12T12:47:50.483Z,43.70
2019-02-12T12:48:55.697Z,43.91
2019-02-12T12:50:00.660Z,43.13
2019-02-12T12:51:05.470Z,42.62
2019-02-12T12:52:10.400Z,42.39
2019-02-12T12:53:15.296Z,41.84
2019-02-12T12:54:20.210Z,41.87
2019-02-12T12:55:25.506Z,41.28
2019-02-12T12:56:30.094Z,40.93
2019-02-12T12:57:41.651Z,40.89
2019-02-12T12:58:41.781Z,40.50
2019-02-12T12:59:46.680Z,40.81
2019-02-12T13:00:52.167Z,40.65
2019-02-12T13:01:57.332Z,41.53
2019-02-12T13:03:01.952Z,41.04
2019-02-12T13:04:06.991Z,40.84
2019-02-12T13:05:11.976Z,40.73
2019-02-12T13:06:16.909Z,40.72
2019-02-12T13:07:21.755Z,40.58
2019-02-12T13:08:26.705Z,40.73
2019-02-12T13:09:31.636Z,40.18
2019-02-12T13:10:36.828Z,40.07
2019-02-12T13:11:42.451Z,39.78
2019-02-12T13:12:47.674Z,40.34
2019-02-12T13:13:52.687Z,40.01
2019-02-12T13:14:57.711Z,39.71
2019-02-12T13:16:03.015Z,39.26
2019-02-12T13:17:08.417Z,39.50
2019-02-12T13:18:13.394Z,39.66
2019-02-12T13:19:17.967Z,40.19
2019-02-12T13:20:23.479Z,40.02
2019-02-12T13:21:28.731Z,39.64
2019-02-12T13:22:34.385Z,39.78
2019-02-12T13:23:39.370Z,39.18
2019-02-12T13:24:45.789Z,38.93
2019-02-12T13:25:51.232Z,39.37
2019-02-12T13:26:56.473Z,38.73
2019-02-12T13:28:01.322Z,39.42
2019-02-12T13:29:06.549Z,38.87
2019-02-12T13:30:14.186Z,38.98
2019-02-12T13:31:19.351Z,39.56
2019-02-12T13:32:24.289Z,38.64
2019-02-12T13:33:29.139Z,38.56
2019-02-12T13:34:34.682Z,38.22
2019-02-12T13:35:39.498Z,38.31
2019-02-12T13:36:44.516Z,38.86
2019-02-12T13:37:49.756Z,38.86
2019-02-12T13:38:54.871Z,39.06
2019-02-12T13:40:00.026Z,39.15
2019-02-12T13:41:05.021Z,39.39
2019-02-12T13:42:09.690Z,38.92
2019-02-12T13:43:14.812Z,37.98
2019-02-12T13:44:20.337Z,38.24
2019-02-12T13:45:25.182Z,38.37
2019-02-12T13:46:29.659Z,38.24
2019-02-12T13:47:34.528Z,38.37
2019-02-12T13:48:39.481Z,37.82
2019-02-12T13:49:44.809Z,38.92
2019-02-12T13:50:50.062Z,39.12
2019-02-12T13:51:55.014Z,38.92
2019-02-12T13:53:00.342Z,38.79
2019-02-12T13:54:05.293Z,39.10
2019-02-12T13:55:16.919Z,38.42
2019-02-12T13:56:17.390Z,38.07
2019-02-12T13:57:22.642Z,38.04
2019-02-12T13:58:27.630Z,37.99
2019-02-12T13:59:33.605Z,38.07
2019-02-12T14:00:38.952Z,38.17
2019-02-12T14:01:43.980Z,38.64
2019-02-12T14:02:49.449Z,38.40
2019-02-12T14:03:54.580Z,38.18
2019-02-12T14:04:59.558Z,38.05
2019-02-12T14:06:04.084Z,38.09
2019-02-12T14:07:09.562Z,38.13
2019-02-12T14:08:14.222Z,38.18
2019-02-12T14:09:19.151Z,38.90
2019-02-12T14:10:24.015Z,38.99
2019-02-12T14:11:29.337Z,38.84
2019-02-12T14:12:34.652Z,38.43
2019-02-12T14:13:44.648Z,38.86
2019-02-12T14:14:50.330Z,38.88
2019-02-12T14:15:55.314Z,39.43
2019-02-12T14:17:00.994Z,39.20
2019-02-12T14:18:06.892Z,39.96
2019-02-12T14:19:12.194Z,39.47
2019-02-12T14:20:16.922Z,39.76
2019-02-12T14:21:21.542Z,39.44
2019-02-12T14:22:26.954Z,39.13
2019-02-12T14:23:32.563Z,39.90
2019-02-12T14:24:37.365Z,40.01
2019-02-12T14:25:45.026Z,39.95
2019-02-12T14:26:50.535Z,40.10
2019-02-12T14:27:55.773Z,40.00
2019-02-12T14:29:01.277Z,40.13
2019-02-12T14:30:06.187Z,40.43
2019-02-12T14:31:11.186Z,40.15
2019-02-12T14:32:15.841Z,39.91
2019-02-12T14:33:20.763Z,39.84
2019-02-12T14:34:25.715Z,40.40
2019-02-12T14:35:30.958Z,40.51
2019-02-12T14:36:35.636Z,40.85
2019-02-12T14:37:40.667Z,40.04
2019-02-12T14:38:45.576Z,39.83
2019-02-12T14:39:50.280Z,40.30
2019-02-12T14:40:55.492Z,40.37
2019-02-12T14:42:00.500Z,40.27
2019-02-12T14:43:13.683Z,40.31
2019-02-12T14:44:12.127Z,40.18
2019-02-12T14:45:16.579Z,40.54
2019-02-12T14:46:21.553Z,40.75
2019-02-12T14:47:26.556Z,40.22
2019-02-12T14:48:31.637Z,39.99
2019-02-12T14:49:36.810Z,40.29
2019-02-12T14:50:42.150Z,39.70
2019-02-12T14:51:47.315Z,39.88
2019-02-12T14:52:51.945Z,40.38
2019-02-12T14:53:56.735Z,40.61
2019-02-12T14:55:01.899Z,40.37
2019-02-12T14:56:11.403Z,41.11
2019-02-12T14:57:13.974Z,40.33
2019-02-12T14:58:19.204Z,40.14
2019-02-12T14:59:24.446Z,40.08
2019-02-12T15:00:29.039Z,40.83
2019-02-12T15:01:34.079Z,41.07
2019-02-12T15:02:39.350Z,41.17
2019-02-12T15:03:44.701Z,41.22
2019-02-12T15:04:49.562Z,41.70
2019-02-12T15:05:54.981Z,41.84